Time;durP1;ratioP1;P1;durP2;ratioP2;P2;SDS_P1;SDS_P2;PMS_P1;PMS_P2;Temp;Humidity;BMP_temperature;BMP_pressure;BME280_temperature;BME280_humidity;BME280_pressure;Samples;Min_cycle;Max_cycle;Signal;HPM_P1;HPM_P2
2023/12/10 00:02:21;;;;;;;17.70;2.63;;;;;;;;;;6216536;23;20004;-86
2023/12/10 00:05:06;;;;;;;14.48;3.20;;;;;;;;;;6217219;23;20007;-87
2023/12/10 00:07:52;;;;;;;14.73;3.67;;;;;;;;;;6216418;23;20078;-86
2023/12/10 00:10:38;;;;;;;13.85;2.92;;;;;;;;;;6218737;23;20000;-87
2023/12/10 00:13:24;;;;;;;8.82;2.45;;;;;;;;;;6216403;23;20166;-86
2023/12/10 00:16:09;;;;;;;14.90;4.22;;;;;;;;;;6219477;23;19999;-86
2023/12/10 00:18:54;;;;;;;13.00;4.18;;;;;;;;;;6197293;23;20310;-85
2023/12/10 00:21:40;;;;;;;15.80;3.88;;;;;;;;;;6213580;23;19992;-86
2023/12/10 00:24:25;;;;;;;17.77;4.25;;;;;;;;;;6218093;23;20221;-86
2023/12/10 00:27:11;;;;;;;14.63;3.53;;;;;;;;;;6218756;23;20046;-85
2023/12/10 00:29:56;;;;;;;13.07;3.80;;;;;;;;;;6217561;23;19992;-85
2023/12/10 00:32:41;;;;;;;21.20;5.88;;;;;;;;;;6218394;23;20007;-84
2023/12/10 00:35:27;;;;;;;16.60;4.30;;;;;;;;;;6216305;23;20382;-84
2023/12/10 00:38:12;;;;;;;19.42;3.88;;;;;;;;;;6217739;23;20047;-85
2023/12/10 00:40:57;;;;;;;19.83;4.30;;;;;;;;;;6218573;23;20705;-84
2023/12/10 00:43:42;;;;;;;22.13;4.55;;;;;;;;;;6197025;23;20012;-84
2023/12/10 00:46:27;;;;;;;18.35;4.55;;;;;;;;;;6197059;23;20008;-85
2023/12/10 00:49:13;;;;;;;20.30;3.92;;;;;;;;;;6217014;23;20004;-85
2023/12/10 00:51:58;;;;;;;19.42;4.07;;;;;;;;;;6215909;23;20368;-86
2023/12/10 00:54:43;;;;;;;23.08;4.80;;;;;;;;;;6216508;23;20003;-84
2023/12/10 00:57:29;;;;;;;20.17;4.00;;;;;;;;;;6216972;23;20000;-85
2023/12/10 01:00:14;;;;;;;23.15;5.75;;;;;;;;;;6217817;23;19996;-86
2023/12/10 01:03:00;;;;;;;29.38;5.95;;;;;;;;;;6217655;23;20008;-86
2023/12/10 01:05:45;;;;;;;22.10;5.40;;;;;;;;;;6217370;23;20476;-86
2023/12/10 01:08:30;;;;;;;18.55;5.07;;;;;;;;;;6216674;23;20006;-85
2023/12/10 01:11:16;;;;;;;16.80;4.30;;;;;;;;;;6219307;23;20503;-86
2023/12/10 01:14:03;;;;;;;24.17;5.35;;;;;;;;;;6216786;23;20019;-85
2023/12/10 01:16:48;;;;;;;23.27;4.28;;;;;;;;;;6216544;23;19996;-85
2023/12/10 01:19:34;;;;;;;17.83;4.32;;;;;;;;;;6217471;23;20003;-86
2023/12/10 01:22:19;;;;;;;23.67;7.28;;;;;;;;;;6216679;23;20061;-85
2023/12/10 01:25:06;;;;;;;20.08;5.00;;;;;;;;;;6216246;23;20006;-86
2023/12/10 01:27:54;;;;;;;25.70;5.20;;;;;;;;;;6217000;23;20000;-86
2023/12/10 01:30:39;;;;;;;21.27;5.22;;;;;;;;;;6216918;23;20099;-85
2023/12/10 01:33:25;;;;;;;21.90;5.53;;;;;;;;;;6217204;23;20010;-86
2023/12/10 01:36:20;;;;;;;28.02;6.78;;;;;;;;;;6216870;23;20000;-85
2023/12/10 01:39:05;;;;;;;25.65;6.35;;;;;;;;;;6216058;23;20558;-85
2023/12/10 01:41:50;;;;;;;25.08;6.85;;;;;;;;;;6216992;23;20340;-85
2023/12/10 01:44:36;;;;;;;19.95;5.05;;;;;;;;;;6216790;23;20039;-85
2023/12/10 01:47:21;;;;;;;23.05;5.75;;;;;;;;;;6238389;23;20042;-85
2023/12/10 01:50:07;;;;;;;26.50;6.18;;;;;;;;;;6216778;23;20020;-85
2023/12/10 01:52:53;;;;;;;23.90;6.40;;;;;;;;;;6217049;23;20087;-85
2023/12/10 01:55:39;;;;;;;26.63;6.20;;;;;;;;;;6214782;23;20429;-85
2023/12/10 01:58:24;;;;;;;23.08;7.32;;;;;;;;;;6215799;23;20083;-85
2023/12/10 02:01:09;;;;;;;25.05;7.80;;;;;;;;;;6216036;23;20051;-86
2023/12/10 02:03:55;;;;;;;20.08;5.80;;;;;;;;;;6195003;23;20368;-86
2023/12/10 02:06:41;;;;;;;30.38;6.15;;;;;;;;;;6215945;23;20425;-86
2023/12/10 02:09:26;;;;;;;20.92;4.32;;;;;;;;;;6215892;22;20010;-85
2023/12/10 02:12:12;;;;;;;22.88;5.28;;;;;;;;;;6215296;23;20016;-86
2023/12/10 02:14:59;;;;;;;20.40;5.78;;;;;;;;;;6214419;23;20075;-86
2023/12/10 02:17:46;;;;;;;22.50;5.80;;;;;;;;;;6194264;23;19996;-85
2023/12/10 02:20:34;;;;;;;26.02;5.78;;;;;;;;;;6215392;23;19996;-84
2023/12/10 02:23:38;;;;;;;30.35;7.45;;;;;;;;;;6216178;23;20134;-85
2023/12/10 02:26:23;;;;;;;21.52;4.75;;;;;;;;;;6215978;23;20448;-85
2023/12/10 02:29:14;;;;;;;21.95;5.10;;;;;;;;;;6216014;23;20000;-86
2023/12/10 02:32:02;;;;;;;19.58;4.22;;;;;;;;;;6214209;23;20087;-85
2023/12/10 02:35:11;;;;;;;24.17;5.50;;;;;;;;;;6216571;23;20134;-85
2023/12/10 02:37:56;;;;;;;21.27;7.95;;;;;;;;;;6215317;23;19992;-85
2023/12/10 02:40:42;;;;;;;16.92;4.20;;;;;;;;;;6216267;23;20000;-84
2023/12/10 02:43:30;;;;;;;21.65;3.95;;;;;;;;;;6190596;23;20000;-85
2023/12/10 02:46:15;;;;;;;24.30;5.78;;;;;;;;;;6215884;23;20094;-85
2023/12/10 02:49:01;;;;;;;16.35;5.20;;;;;;;;;;6215823;23;20174;-85
2023/12/10 02:51:46;;;;;;;17.92;4.20;;;;;;;;;;6215018;23;20205;-85
2023/12/10 02:54:31;;;;;;;18.50;4.30;;;;;;;;;;6215949;23;20532;-85
2023/12/10 02:57:16;;;;;;;14.23;3.83;;;;;;;;;;6216163;23;20011;-85
2023/12/10 03:00:02;;;;;;;12.65;2.50;;;;;;;;;;6214914;23;20000;-84
2023/12/10 03:02:48;;;;;;;9.90;3.10;;;;;;;;;;6216177;23;20079;-86
2023/12/10 03:05:33;;;;;;;10.10;2.78;;;;;;;;;;6219302;23;20024;-85
2023/12/10 03:08:18;;;;;;;8.75;2.47;;;;;;;;;;6219639;23;20000;-85
2023/12/10 03:11:04;;;;;;;11.02;3.00;;;;;;;;;;6218841;23;20054;-85
2023/12/10 03:13:55;;;;;;;6.28;2.28;;;;;;;;;;6220849;23;20012;-84
2023/12/10 03:16:40;;;;;;;9.85;2.60;;;;;;;;;;6222544;23;19999;-84
2023/12/10 03:19:25;;;;;;;11.68;2.90;;;;;;;;;;6221648;23;20055;-85
2023/12/10 03:22:11;;;;;;;8.57;2.20;;;;;;;;;;6220176;23;20071;-84
2023/12/10 03:24:56;;;;;;;8.32;2.75;;;;;;;;;;6221430;23;20000;-85
2023/12/10 03:27:41;;;;;;;11.57;1.92;;;;;;;;;;6221522;23;20050;-84
2023/12/10 03:30:27;;;;;;;9.35;2.17;;;;;;;;;;6220858;23;20050;-84
2023/12/10 03:33:12;;;;;;;9.50;2.70;;;;;;;;;;6221451;23;20379;-85
2023/12/10 03:35:56;;;;;;;14.35;3.55;;;;;;;;;;6235353;23;20054;-86
2023/12/10 03:38:40;;;;;;;11.23;3.03;;;;;;;;;;6237750;23;20530;-85
2023/12/10 03:41:25;;;;;;;9.85;3.05;;;;;;;;;;6237101;23;20007;-85
2023/12/10 03:44:10;;;;;;;10.93;2.72;;;;;;;;;;6220995;23;20067;-85
2023/12/10 03:46:56;;;;;;;13.10;2.83;;;;;;;;;;6241596;23;20057;-85
2023/12/10 03:49:41;;;;;;;11.95;2.88;;;;;;;;;;6242393;23;20015;-85
2023/12/10 03:52:26;;;;;;;14.00;3.10;;;;;;;;;;6219098;23;20389;-85
2023/12/10 03:55:11;;;;;;;16.63;4.50;;;;;;;;;;6220395;23;20007;-85
2023/12/10 03:57:57;;;;;;;11.88;3.45;;;;;;;;;;6220430;23;20130;-85
2023/12/10 04:00:42;;;;;;;12.52;4.50;;;;;;;;;;6220017;23;20000;-85
2023/12/10 04:03:27;;;;;;;23.58;3.80;;;;;;;;;;6211078;23;20008;-84
2023/12/10 04:06:13;;;;;;;23.08;3.47;;;;;;;;;;6217671;23;20008;-85
2023/12/10 04:08:58;;;;;;;13.68;2.75;;;;;;;;;;6215649;23;20011;-84
2023/12/10 04:11:43;;;;;;;15.88;3.90;;;;;;;;;;6216634;23;20668;-85
2023/12/10 04:14:28;;;;;;;15.00;4.07;;;;;;;;;;6217047;23;20051;-85
2023/12/10 04:17:14;;;;;;;17.58;4.13;;;;;;;;;;6216737;23;19997;-86
2023/12/10 04:19:59;;;;;;;13.30;3.60;;;;;;;;;;6216711;23;20372;-86
2023/12/10 04:22:44;;;;;;;12.48;3.05;;;;;;;;;;6215822;23;20005;-85
2023/12/10 04:25:29;;;;;;;14.20;4.18;;;;;;;;;;6215977;23;20003;-85
2023/12/10 04:28:15;;;;;;;15.05;3.83;;;;;;;;;;6217109;23;20324;-83
2023/12/10 04:31:01;;;;;;;14.88;3.58;;;;;;;;;;6216451;23;20020;-85
2023/12/10 04:33:46;;;;;;;16.98;4.05;;;;;;;;;;6217847;23;20007;-85
2023/12/10 04:36:31;;;;;;;13.48;2.97;;;;;;;;;;6216424;23;20004;-85
2023/12/10 04:39:17;;;;;;;14.70;3.47;;;;;;;;;;6217242;23;19992;-85
2023/12/10 04:42:02;;;;;;;15.82;3.30;;;;;;;;;;6216356;23;20421;-86
2023/12/10 04:44:48;;;;;;;14.45;3.95;;;;;;;;;;6216109;23;19996;-86
2023/12/10 04:47:34;;;;;;;16.75;3.33;;;;;;;;;;6216356;23;20003;-85
2023/12/10 04:50:20;;;;;;;11.98;3.17;;;;;;;;;;6215904;23;20000;-86
2023/12/10 04:53:05;;;;;;;12.60;2.83;;;;;;;;;;6215924;23;20062;-86
2023/12/10 04:55:50;;;;;;;12.93;3.78;;;;;;;;;;6216630;23;19996;-85
2023/12/10 04:58:36;;;;;;;17.70;3.63;;;;;;;;;;6215541;23;20134;-84
2023/12/10 05:01:21;;;;;;;15.57;3.15;;;;;;;;;;6216645;23;20304;-85
2023/12/10 05:04:24;;;;;;;20.42;4.18;;;;;;;;;;6216083;23;20008;-85
2023/12/10 05:07:16;;;;;;;20.02;4.75;;;;;;;;;;6205056;23;20135;-85
2023/12/10 05:10:04;;;;;;;15.38;4.22;;;;;;;;;;6184499;23;20004;-85
2023/12/10 05:12:49;;;;;;;13.07;4.07;;;;;;;;;;6214198;23;20455;-84
2023/12/10 05:15:35;;;;;;;14.45;3.70;;;;;;;;;;6211112;23;20067;-85
2023/12/10 05:18:40;;;;;;;13.80;4.35;;;;;;;;;;6215693;23;20383;-85
2023/12/10 05:21:30;;;;;;;17.88;4.20;;;;;;;;;;6199367;23;19996;-84
2023/12/10 05:24:15;;;;;;;;;;;;;;;;;;6217782;23;20004;-85
2023/12/10 05:27:01;;;;;;;17.13;3.20;;;;;;;;;;6216686;23;19904;-84
2023/12/10 05:29:46;;;;;;;20.00;4.45;;;;;;;;;;6211598;23;20012;-84
2023/12/10 05:32:31;;;;;;;15.20;3.60;;;;;;;;;;6215744;23;19996;-84
2023/12/10 05:35:16;;;;;;;16.08;2.85;;;;;;;;;;6215571;23;20000;-85
2023/12/10 05:38:03;;;;;;;17.63;4.85;;;;;;;;;;6215339;23;20028;-83
2023/12/10 05:40:48;;;;;;;16.98;4.35;;;;;;;;;;6216530;23;20322;-84
2023/12/10 05:43:34;;;;;;;11.27;4.38;;;;;;;;;;6216257;23;20011;-85
2023/12/10 05:46:19;;;;;;;14.38;3.47;;;;;;;;;;6216717;23;20417;-85
2023/12/10 05:49:05;;;;;;;16.05;3.28;;;;;;;;;;6216146;23;19996;-86
2023/12/10 05:51:51;;;;;;;14.70;3.67;;;;;;;;;;6215585;23;20008;-85
2023/12/10 05:54:37;;;;;;;12.50;4.35;;;;;;;;;;6215802;23;20050;-85
2023/12/10 05:57:25;;;;;;;13.15;3.08;;;;;;;;;;6216201;23;20091;-86
2023/12/10 06:00:10;;;;;;;17.33;4.30;;;;;;;;;;6190597;23;20011;-85
2023/12/10 06:02:56;;;;;;;14.52;3.00;;;;;;;;;;6215189;23;20003;-85
2023/12/10 06:05:44;;;;;;;13.93;3.22;;;;;;;;;;6215662;23;20003;-84
2023/12/10 06:08:32;;;;;;;19.55;4.90;;;;;;;;;;6215657;23;20459;-85
2023/12/10 06:11:21;;;;;;;15.32;4.13;;;;;;;;;;6214539;23;19996;-85
2023/12/10 06:14:06;;;;;;;17.90;4.35;;;;;;;;;;6215657;23;20079;-86
2023/12/10 06:16:51;;;;;;;18.77;4.60;;;;;;;;;;6190866;23;20065;-85
2023/12/10 06:19:37;;;;;;;22.38;4.63;;;;;;;;;;6211812;23;20004;-85
2023/12/10 06:22:22;;;;;;;10.48;3.33;;;;;;;;;;6215336;23;20014;-86
2023/12/10 06:25:07;;;;;;;13.73;3.40;;;;;;;;;;6215679;23;20142;-86
2023/12/10 06:28:05;;;;;;;22.73;4.43;;;;;;;;;;6215378;23;20087;-86
2023/12/10 06:30:50;;;;;;;13.77;3.90;;;;;;;;;;6215795;23;20006;-85
2023/12/10 06:33:40;;;;;;;13.02;4.05;;;;;;;;;;6232094;23;20004;-86
2023/12/10 06:36:25;;;;;;;;;;;;;;;;;;6215534;23;20008;-86
2023/12/10 06:39:10;;;;;;;12.50;3.20;;;;;;;;;;6215717;23;19904;-86
2023/12/10 06:41:56;;;;;;;14.18;3.90;;;;;;;;;;6215630;23;20425;-84
2023/12/10 06:44:41;;;;;;;19.90;3.45;;;;;;;;;;6216675;23;20000;-85
2023/12/10 06:47:27;;;;;;;14.38;2.53;;;;;;;;;;6217138;23;20024;-84
2023/12/10 06:50:12;;;;;;;14.02;3.47;;;;;;;;;;6217598;23;20004;-86
2023/12/10 06:52:57;;;;;;;12.02;3.20;;;;;;;;;;6217704;23;20000;-85
2023/12/10 06:55:42;;;;;;;17.60;3.05;;;;;;;;;;6217346;23;20106;-86
2023/12/10 06:58:27;;;;;;;18.05;3.95;;;;;;;;;;6218241;23;20762;-86
2023/12/10 07:01:14;;;;;;;10.43;2.80;;;;;;;;;;6217982;23;19996;-85
2023/12/10 07:03:59;;;;;;;11.82;2.95;;;;;;;;;;6247464;23;20004;-85
2023/12/10 07:06:43;;;;;;;13.07;3.50;;;;;;;;;;6263028;23;20038;-86
2023/12/10 07:09:27;;;;;;;12.68;2.92;;;;;;;;;;6263723;22;20734;-87
2023/12/10 07:12:13;;;;;;;12.25;3.10;;;;;;;;;;6258866;22;20211;-86
2023/12/10 07:14:58;;;;;;;18.30;3.88;;;;;;;;;;6254529;22;20004;-85
2023/12/10 07:17:44;;;;;;;13.70;4.03;;;;;;;;;;6247993;23;20193;-84
2023/12/10 07:20:29;;;;;;;13.30;2.78;;;;;;;;;;6220276;23;20004;-84
2023/12/10 07:23:15;;;;;;;12.63;2.67;;;;;;;;;;6220024;23;20004;-84
2023/12/10 07:26:00;;;;;;;13.52;2.78;;;;;;;;;;6218419;23;20006;-86
2023/12/10 07:28:45;;;;;;;12.15;3.60;;;;;;;;;;6239440;23;20000;-84
2023/12/10 07:31:30;;;;;;;12.48;2.75;;;;;;;;;;6240737;23;20008;-85
2023/12/10 07:34:15;;;;;;;12.43;3.30;;;;;;;;;;6218525;23;20007;-84
2023/12/10 07:37:01;;;;;;;14.88;3.38;;;;;;;;;;6239295;23;20131;-84
2023/12/10 07:39:46;;;;;;;13.57;3.22;;;;;;;;;;6216403;23;20118;-84
2023/12/10 07:42:31;;;;;;;15.07;3.90;;;;;;;;;;6217327;23;20004;-84
2023/12/10 07:45:16;;;;;;;15.45;3.58;;;;;;;;;;6218563;23;20000;-85
2023/12/10 07:48:02;;;;;;;17.02;4.90;;;;;;;;;;6216664;23;20008;-84
2023/12/10 07:50:47;;;;;;;18.30;3.72;;;;;;;;;;6216661;23;20004;-84
2023/12/10 07:53:32;;;;;;;12.40;3.30;;;;;;;;;;6216840;23;20004;-85
2023/12/10 07:56:18;;;;;;;15.13;3.53;;;;;;;;;;6215928;23;20035;-84
2023/12/10 07:59:03;;;;;;;19.15;3.83;;;;;;;;;;6216929;23;20030;-84
2023/12/10 08:01:48;;;;;;;12.10;3.15;;;;;;;;;;6217029;23;20000;-85
2023/12/10 08:04:36;;;;;;;12.30;3.50;;;;;;;;;;6217402;23;20053;-84
2023/12/10 08:07:21;;;;;;;13.10;4.38;;;;;;;;;;6217247;23;20010;-85
2023/12/10 08:10:08;;;;;;;16.38;3.50;;;;;;;;;;6216838;23;20007;-84
2023/12/10 08:12:53;;;;;;;9.88;3.20;;;;;;;;;;6216025;23;20020;-83
2023/12/10 08:15:38;;;;;;;14.18;3.50;;;;;;;;;;6234464;23;20077;-86
2023/12/10 08:18:24;;;;;;;11.80;3.05;;;;;;;;;;6196223;23;20010;-83
2023/12/10 08:21:09;;;;;;;11.82;3.42;;;;;;;;;;6216009;23;20000;-83
2023/12/10 08:23:54;;;;;;;9.82;3.05;;;;;;;;;;6216988;23;20050;-84
2023/12/10 08:26:39;;;;;;;9.80;3.50;;;;;;;;;;6217149;23;20008;-85
2023/12/10 08:29:25;;;;;;;14.60;3.58;;;;;;;;;;6216375;23;20007;-84
2023/12/10 08:32:11;;;;;;;12.63;3.88;;;;;;;;;;6216536;23;20000;-85
2023/12/10 08:34:56;;;;;;;8.43;2.53;;;;;;;;;;6217270;23;20004;-84
2023/12/10 08:37:42;;;;;;;15.02;3.17;;;;;;;;;;6216789;23;20003;-85
2023/12/10 08:40:27;;;;;;;20.23;5.20;;;;;;;;;;6215889;23;19996;-85
2023/12/10 08:43:12;;;;;;;11.75;3.72;;;;;;;;;;6216538;23;20015;-87
2023/12/10 08:45:58;;;;;;;11.57;3.60;;;;;;;;;;6217165;23;20008;-85
2023/12/10 08:48:43;;;;;;;14.20;3.90;;;;;;;;;;6216302;23;20004;-86
2023/12/10 08:51:28;;;;;;;13.85;3.65;;;;;;;;;;6216415;23;20014;-85
2023/12/10 08:54:14;;;;;;;12.23;3.05;;;;;;;;;;6216273;23;20462;-84
2023/12/10 08:56:59;;;;;;;12.68;2.53;;;;;;;;;;6216795;23;20028;-84
2023/12/10 08:59:44;;;;;;;17.23;3.78;;;;;;;;;;6237440;23;20034;-84
2023/12/10 09:02:29;;;;;;;11.07;3.72;;;;;;;;;;6196104;23;20439;-84
2023/12/10 09:05:15;;;;;;;12.00;3.38;;;;;;;;;;6236931;23;19997;-85
2023/12/10 09:08:01;;;;;;;14.85;3.92;;;;;;;;;;6216119;23;20091;-85
2023/12/10 09:10:46;;;;;;;10.65;3.15;;;;;;;;;;6216605;23;19996;-85
2023/12/10 09:13:32;;;;;;;14.38;4.03;;;;;;;;;;6215669;23;20020;-85
2023/12/10 09:16:18;;;;;;;14.57;3.65;;;;;;;;;;6216315;23;20000;-86
2023/12/10 09:19:03;;;;;;;11.93;3.00;;;;;;;;;;6216707;23;20000;-85
2023/12/10 09:21:49;;;;;;;15.63;2.90;;;;;;;;;;6216419;23;20035;-86
2023/12/10 09:24:35;;;;;;;14.77;3.47;;;;;;;;;;6216990;23;20008;-85
2023/12/10 09:27:20;;;;;;;17.77;3.35;;;;;;;;;;6215641;23;20415;-84
2023/12/10 09:30:05;;;;;;;12.45;3.17;;;;;;;;;;6217079;23;19999;-83
2023/12/10 09:32:51;;;;;;;18.17;3.45;;;;;;;;;;6194834;23;20031;-84
2023/12/10 09:35:39;;;;;;;11.55;3.00;;;;;;;;;;6215909;23;20393;-84
2023/12/10 09:38:24;;;;;;;11.40;2.92;;;;;;;;;;6215721;23;20123;-84
2023/12/10 09:41:09;;;;;;;11.43;3.42;;;;;;;;;;6215684;23;19996;-84
2023/12/10 09:43:54;;;;;;;12.07;3.08;;;;;;;;;;6216699;23;20425;-85
2023/12/10 09:46:39;;;;;;;11.23;3.25;;;;;;;;;;6217140;23;20011;-85
2023/12/10 09:49:26;;;;;;;14.05;2.92;;;;;;;;;;6215901;23;20469;-84
2023/12/10 09:52:12;;;;;;;11.45;2.60;;;;;;;;;;6216113;23;20044;-85
2023/12/10 09:54:57;;;;;;;10.32;3.53;;;;;;;;;;6216577;23;20027;-85
2023/12/10 09:57:43;;;;;;;11.75;2.35;;;;;;;;;;6216001;23;20004;-86
2023/12/10 10:00:28;;;;;;;10.00;1.80;;;;;;;;;;6216211;23;20011;-85
2023/12/10 10:03:14;;;;;;;8.25;2.50;;;;;;;;;;6215984;23;20004;-85
2023/12/10 10:05:59;;;;;;;12.25;3.20;;;;;;;;;;6207463;23;20500;-85
2023/12/10 10:08:44;;;;;;;12.38;3.13;;;;;;;;;;6215490;23;20428;-84
2023/12/10 10:11:29;;;;;;;10.10;2.40;;;;;;;;;;6216275;23;20000;-85
2023/12/10 10:14:16;;;;;;;10.15;2.40;;;;;;;;;;6214952;23;20322;-85
2023/12/10 10:17:02;;;;;;;8.50;2.65;;;;;;;;;;6216421;23;20019;-85
2023/12/10 10:19:48;;;;;;;11.63;3.47;;;;;;;;;;6216081;23;20425;-85
2023/12/10 10:22:33;;;;;;;12.45;2.63;;;;;;;;;;6219883;23;20447;-85
2023/12/10 10:25:19;;;;;;;8.30;2.47;;;;;;;;;;6220182;23;20010;-85
2023/12/10 10:28:07;;;;;;;10.35;3.25;;;;;;;;;;6218789;23;20429;-85
2023/12/10 10:30:53;;;;;;;12.02;3.85;;;;;;;;;;6217958;23;20004;-85
2023/12/10 10:33:38;;;;;;;11.65;3.35;;;;;;;;;;6217833;23;20388;-84
2023/12/10 10:36:24;;;;;;;10.88;2.92;;;;;;;;;;6217329;23;20000;-84
2023/12/10 10:39:09;;;;;;;14.80;3.58;;;;;;;;;;6218363;23;20032;-84
2023/12/10 10:41:55;;;;;;;10.70;3.13;;;;;;;;;;6197357;23;19996;-84
2023/12/10 10:44:41;;;;;;;9.38;2.53;;;;;;;;;;6218043;23;20039;-86
2023/12/10 10:47:27;;;;;;;8.27;2.88;;;;;;;;;;6218088;23;20000;-85
2023/12/10 10:50:13;;;;;;;8.65;2.50;;;;;;;;;;6217978;23;20035;-84
2023/12/10 10:52:59;;;;;;;9.80;2.72;;;;;;;;;;6217797;23;20314;-84
2023/12/10 10:55:48;;;;;;;11.10;2.45;;;;;;;;;;6217568;23;20003;-85
2023/12/10 10:58:33;;;;;;;10.07;2.67;;;;;;;;;;6216890;23;20000;-85
2023/12/10 11:01:35;;;;;;;9.50;2.58;;;;;;;;;;6220376;23;20011;-86
2023/12/10 11:04:21;;;;;;;6.90;2.17;;;;;;;;;;6216828;23;20004;-83
2023/12/10 11:07:09;;;;;;;15.75;3.67;;;;;;;;;;6217564;23;19999;-83
2023/12/10 11:09:59;;;;;;;9.70;3.88;;;;;;;;;;6217182;23;20000;-83
2023/12/10 11:12:45;;;;;;;10.00;2.90;;;;;;;;;;6217151;23;20020;-85
2023/12/10 11:15:31;;;;;;;13.15;3.10;;;;;;;;;;6216777;23;19996;-85
2023/12/10 11:18:16;;;;;;;15.15;2.92;;;;;;;;;;6196540;23;19996;-84
2023/12/10 11:21:02;;;;;;;6.47;1.92;;;;;;;;;;6218080;23;20000;-85
2023/12/10 11:23:47;;;;;;;10.43;2.95;;;;;;;;;;6217314;23;20004;-85
2023/12/10 11:26:32;;;;;;;12.63;4.22;;;;;;;;;;6217414;23;20004;-86
2023/12/10 11:29:17;;;;;;;12.18;3.40;;;;;;;;;;6217480;23;20000;-85
2023/12/10 11:32:03;;;;;;;8.85;2.30;;;;;;;;;;6216169;23;19996;-85
2023/12/10 11:34:54;;;;;;;13.90;3.42;;;;;;;;;;6216931;23;20016;-84
2023/12/10 11:37:40;;;;;;;10.10;2.78;;;;;;;;;;6216876;23;20003;-85
2023/12/10 11:40:26;;;;;;;15.15;3.15;;;;;;;;;;6217154;23;20130;-85
2023/12/10 11:43:11;;;;;;;10.98;2.85;;;;;;;;;;6216512;23;20321;-86
2023/12/10 11:45:56;;;;;;;12.38;3.00;;;;;;;;;;6216924;23;20000;-86
2023/12/10 11:48:42;;;;;;;12.32;2.80;;;;;;;;;;6217037;23;20004;-85
2023/12/10 11:51:27;;;;;;;12.20;3.60;;;;;;;;;;6217289;23;20028;-84
2023/12/10 11:54:12;;;;;;;13.38;2.72;;;;;;;;;;6217254;23;20054;-84
2023/12/10 11:56:57;;;;;;;17.35;4.45;;;;;;;;;;6217733;23;19997;-85
2023/12/10 11:59:47;;;;;;;12.10;3.75;;;;;;;;;;6216408;23;20018;-86
2023/12/10 12:02:34;;;;;;;15.13;3.28;;;;;;;;;;6217642;23;20004;-85
2023/12/10 12:05:20;;;;;;;16.48;3.47;;;;;;;;;;6216276;23;20003;-85
2023/12/10 12:08:05;;;;;;;22.67;4.90;;;;;;;;;;6216519;23;20007;-86
2023/12/10 12:10:51;;;;;;;14.07;4.20;;;;;;;;;;6216656;23;20007;-85
2023/12/10 12:13:36;;;;;;;12.68;3.72;;;;;;;;;;6216496;23;20039;-84
2023/12/10 12:16:21;;;;;;;14.70;5.03;;;;;;;;;;6216536;23;20071;-84
2023/12/10 12:19:06;;;;;;;26.67;10.25;;;;;;;;;;6216129;23;19992;-84
2023/12/10 12:21:52;;;;;;;12.38;4.55;;;;;;;;;;6216231;23;20000;-84
2023/12/10 12:24:43;;;;;;;10.68;3.15;;;;;;;;;;6195962;23;20432;-84
2023/12/10 12:27:28;;;;;;;14.10;3.50;;;;;;;;;;6217022;23;20199;-84
2023/12/10 12:30:14;;;;;;;15.93;4.57;;;;;;;;;;6216266;23;20421;-84
2023/12/10 12:33:00;;;;;;;14.35;4.03;;;;;;;;;;6216071;23;19996;-84
2023/12/10 12:35:45;;;;;;;15.82;4.15;;;;;;;;;;6216161;23;19996;-84
2023/12/10 12:38:30;;;;;;;17.00;3.55;;;;;;;;;;6215165;23;20000;-84
2023/12/10 12:41:15;;;;;;;12.20;2.80;;;;;;;;;;6216340;23;19996;-84
2023/12/10 12:44:01;;;;;;;12.10;3.63;;;;;;;;;;6236243;23;20079;-84
2023/12/10 12:46:46;;;;;;;12.23;3.55;;;;;;;;;;6216611;23;19996;-84
2023/12/10 12:49:31;;;;;;;10.50;3.08;;;;;;;;;;6216370;23;19997;-84
2023/12/10 12:52:17;;;;;;;9.98;3.13;;;;;;;;;;6217219;23;20007;-84
2023/12/10 12:55:02;;;;;;;10.93;3.38;;;;;;;;;;6196319;23;20015;-83
2023/12/10 12:57:48;;;;;;;12.85;2.65;;;;;;;;;;6216309;23;20006;-83
2023/12/10 13:00:33;;;;;;;11.65;2.72;;;;;;;;;;6215513;23;20027;-83
2023/12/10 13:03:18;;;;;;;12.00;2.70;;;;;;;;;;6216685;23;20072;-84
2023/12/10 13:06:03;;;;;;;10.23;3.08;;;;;;;;;;6216830;23;20050;-83
2023/12/10 13:08:49;;;;;;;18.10;3.53;;;;;;;;;;6216356;23;19992;-83
2023/12/10 13:11:34;;;;;;;13.40;4.03;;;;;;;;;;6216248;23;20000;-83
2023/12/10 13:14:20;;;;;;;10.35;2.83;;;;;;;;;;6216031;23;20023;-85
2023/12/10 13:17:05;;;;;;;9.02;2.78;;;;;;;;;;6215367;23;20042;-84
2023/12/10 13:19:51;;;;;;;12.55;2.80;;;;;;;;;;6194770;23;20000;-84
2023/12/10 13:22:36;;;;;;;11.82;2.85;;;;;;;;;;6215967;23;20364;-85
2023/12/10 13:25:21;;;;;;;15.13;3.67;;;;;;;;;;6215925;23;20333;-85
2023/12/10 13:28:08;;;;;;;11.40;3.38;;;;;;;;;;6216413;23;20078;-84
2023/12/10 13:30:54;;;;;;;10.45;4.20;;;;;;;;;;6212947;23;20077;-83
2023/12/10 13:33:39;;;;;;;13.02;3.28;;;;;;;;;;6214970;23;20004;-84
2023/12/10 13:36:24;;;;;;;6.38;2.83;;;;;;;;;;6216189;23;20003;-83
2023/12/10 13:39:09;;;;;;;10.63;2.88;;;;;;;;;;6215395;23;19992;-84
2023/12/10 13:41:54;;;;;;;9.98;2.83;;;;;;;;;;6215406;23;20007;-83
2023/12/10 13:44:40;;;;;;;8.65;3.00;;;;;;;;;;6214738;23;20000;-83
2023/12/10 13:47:25;;;;;;;13.73;3.33;;;;;;;;;;6215464;23;20076;-83
2023/12/10 13:50:10;;;;;;;8.50;2.60;;;;;;;;;;6215161;23;19996;-82
2023/12/10 13:52:56;;;;;;;11.30;2.53;;;;;;;;;;6215911;23;20430;-83
2023/12/10 13:55:41;;;;;;;11.20;2.53;;;;;;;;;;6215589;23;20310;-83
2023/12/10 13:58:26;;;;;;;11.05;3.38;;;;;;;;;;6215638;23;20811;-83
2023/12/10 14:01:11;;;;;;;12.20;4.68;;;;;;;;;;6215337;23;20068;-85
2023/12/10 14:03:56;;;;;;;15.32;4.07;;;;;;;;;;6214697;23;20425;-83
2023/12/10 14:06:42;;;;;;;17.95;5.25;;;;;;;;;;6215080;23;20068;-82
2023/12/10 14:09:27;;;;;;;16.88;4.15;;;;;;;;;;6215195;22;20429;-82
2023/12/10 14:12:12;;;;;;;8.82;2.90;;;;;;;;;;6215155;23;20093;-82
2023/12/10 14:14:58;;;;;;;11.10;3.00;;;;;;;;;;6215407;23;20578;-82
2023/12/10 14:17:43;;;;;;;11.85;2.92;;;;;;;;;;6211145;23;20428;-85
2023/12/10 14:20:29;;;;;;;10.70;3.28;;;;;;;;;;6194701;23;20376;-85
2023/12/10 14:23:14;;;;;;;8.68;2.65;;;;;;;;;;6216399;23;19996;-86
2023/12/10 14:25:59;;;;;;;10.90;2.65;;;;;;;;;;6195638;23;20087;-87
2023/12/10 14:28:44;;;;;;;17.00;2.78;;;;;;;;;;6216863;23;20018;-85
2023/12/10 14:31:33;;;;;;;9.73;3.15;;;;;;;;;;6216679;23;20086;-86
2023/12/10 14:34:18;;;;;;;9.38;2.58;;;;;;;;;;6216923;23;20004;-87
2023/12/10 14:37:03;;;;;;;12.23;3.78;;;;;;;;;;6215693;23;20209;-85
2023/12/10 14:39:48;;;;;;;11.60;3.63;;;;;;;;;;6216638;23;20429;-81
2023/12/10 14:42:33;;;;;;;9.35;3.25;;;;;;;;;;6237585;23;20348;-83
2023/12/10 14:45:19;;;;;;;9.45;2.63;;;;;;;;;;6215368;23;20000;-84
2023/12/10 14:48:04;;;;;;;12.98;2.83;;;;;;;;;;6216981;23;19992;-86
2023/12/10 14:50:50;;;;;;;9.40;2.53;;;;;;;;;;6195642;23;20075;-86
2023/12/10 14:53:35;;;;;;;11.00;2.97;;;;;;;;;;6217121;23;20004;-85
2023/12/10 14:56:20;;;;;;;9.32;2.20;;;;;;;;;;6216900;23;20000;-85
2023/12/10 14:59:05;;;;;;;12.38;3.22;;;;;;;;;;6216705;23;20076;-85
2023/12/10 15:01:51;;;;;;;10.63;3.35;;;;;;;;;;6215933;23;20066;-85
2023/12/10 15:04:37;;;;;;;10.68;2.97;;;;;;;;;;6216656;23;20441;-83
2023/12/10 15:07:22;;;;;;;11.35;4.05;;;;;;;;;;6215897;23;20012;-84
2023/12/10 15:10:09;;;;;;;14.10;2.97;;;;;;;;;;6218208;23;20000;-83
2023/12/10 15:12:54;;;;;;;17.00;3.80;;;;;;;;;;6223581;23;20065;-83
2023/12/10 15:15:39;;;;;;;12.82;3.97;;;;;;;;;;6239777;23;20058;-82
2023/12/10 15:18:24;;;;;;;15.25;3.65;;;;;;;;;;6254039;23;19999;-83
2023/12/10 15:21:10;;;;;;;8.95;3.15;;;;;;;;;;6233667;23;20028;-84
2023/12/10 15:23:57;;;;;;;11.23;2.90;;;;;;;;;;6262005;23;19992;-82
2023/12/10 15:26:42;;;;;;;13.82;3.92;;;;;;;;;;6246237;22;19988;-83
2023/12/10 15:29:27;;;;;;;15.85;3.20;;;;;;;;;;6241072;23;20004;-82
2023/12/10 15:32:12;;;;;;;11.05;2.90;;;;;;;;;;6219436;23;20000;-86
2023/12/10 15:34:59;;;;;;;15.13;3.33;;;;;;;;;;6218657;23;20452;-83
2023/12/10 15:37:44;;;;;;;12.90;3.55;;;;;;;;;;6218427;23;20181;-83
2023/12/10 15:40:30;;;;;;;12.65;4.20;;;;;;;;;;6217420;23;20233;-83
2023/12/10 15:43:16;;;;;;;10.70;2.70;;;;;;;;;;6218306;23;20008;-84
2023/12/10 15:46:02;;;;;;;16.15;3.45;;;;;;;;;;6216367;23;20007;-82
2023/12/10 15:48:47;;;;;;;18.08;4.15;;;;;;;;;;6217888;23;19996;-83
2023/12/10 15:51:32;;;;;;;12.35;3.63;;;;;;;;;;6217293;23;20034;-82
2023/12/10 15:54:18;;;;;;;14.88;3.63;;;;;;;;;;6217746;23;20007;-82
2023/12/10 15:57:03;;;;;;;15.63;3.97;;;;;;;;;;6218243;23;20001;-82
2023/12/10 15:59:49;;;;;;;15.07;4.45;;;;;;;;;;6217207;23;20325;-82
2023/12/10 16:02:34;;;;;;;11.60;2.95;;;;;;;;;;6216494;23;19992;-83
2023/12/10 16:05:19;;;;;;;18.92;4.75;;;;;;;;;;6238653;23;20361;-83
2023/12/10 16:08:05;;;;;;;9.45;3.03;;;;;;;;;;6217453;23;20000;-82
2023/12/10 16:10:50;;;;;;;11.27;3.13;;;;;;;;;;6217065;23;20124;-84
2023/12/10 16:13:35;;;;;;;17.60;5.07;;;;;;;;;;6217092;23;20039;-82
2023/12/10 16:16:22;;;;;;;12.20;3.78;;;;;;;;;;6238026;23;20063;-82
2023/12/10 16:19:07;;;;;;;12.27;3.60;;;;;;;;;;6216820;23;20018;-82
2023/12/10 16:21:53;;;;;;;12.43;3.60;;;;;;;;;;6217387;23;20079;-83